sensor_id;sensor_type;location;lat;lon;timestamp;temperature;humidity
3758;DHT22;1894;51.038;13.692;2023-02-24T00:00:11;9.10;99.90
3758;DHT22;1894;51.038;13.692;2023-02-24T00:02:59;9.10;99.90
3758;DHT22;1894;51.038;13.692;2023-02-24T00:05:36;9.10;99.90
3758;DHT22;1894;51.038;13.692;2023-02-24T00:08:05;9.20;99.90
3758;DHT22;1894;51.038;13.692;2023-02-24T00:10:32;9.10;99.90
3758;DHT22;1894;51.038;13.692;2023-02-24T00:13:00;9.20;99.90
3758;DHT22;1894;51.038;13.692;2023-02-24T00:15:27;9.30;99.90
3758;DHT22;1894;51.038;13.692;2023-02-24T00:17:54;9.20;99.90
3758;DHT22;1894;51.038;13.692;2023-02-24T00:20:21;9.20;99.90
3758;DHT22;1894;51.038;13.692;2023-02-24T00:22:48;9.20;99.90
3758;DHT22;1894;51.038;13.692;2023-02-24T00:25:15;9.20;99.90
3758;DHT22;1894;51.038;13.692;2023-02-24T00:27:43;9.30;99.90
3758;DHT22;1894;51.038;13.692;2023-02-24T00:30:10;9.30;99.90
3758;DHT22;1894;51.038;13.692;2023-02-24T00:32:38;9.10;99.90
3758;DHT22;1894;51.038;13.692;2023-02-24T00:35:06;9.10;99.90
3758;DHT22;1894;51.038;13.692;2023-02-24T00:37:34;9.10;99.90
3758;DHT22;1894;51.038;13.692;2023-02-24T00:40:01;9.00;99.90
3758;DHT22;1894;51.038;13.692;2023-02-24T00:42:37;8.90;99.90
3758;DHT22;1894;51.038;13.692;2023-02-24T00:45:06;9.00;99.90
3758;DHT22;1894;51.038;13.692;2023-02-24T00:47:37;9.10;99.90
3758;DHT22;1894;51.038;13.692;2023-02-24T00:50:06;9.10;99.90
3758;DHT22;1894;51.038;13.692;2023-02-24T00:52:34;9.00;99.90
3758;DHT22;1894;51.038;13.692;2023-02-24T00:55:04;9.00;99.90
3758;DHT22;1894;51.038;13.692;2023-02-24T00:57:40;8.80;99.90
3758;DHT22;1894;51.038;13.692;2023-02-24T01:00:08;8.80;99.90
3758;DHT22;1894;51.038;13.692;2023-02-24T01:02:38;8.90;99.90
3758;DHT22;1894;51.038;13.692;2023-02-24T01:05:07;8.80;99.90
3758;DHT22;1894;51.038;13.692;2023-02-24T01:07:35;8.80;99.90
3758;DHT22;1894;51.038;13.692;2023-02-24T01:10:05;8.60;99.90
3758;DHT22;1894;51.038;13.692;2023-02-24T01:12:34;8.60;99.90
3758;DHT22;1894;51.038;13.692;2023-02-24T01:15:05;8.70;99.90
3758;DHT22;1894;51.038;13.692;2023-02-24T01:17:35;8.60;99.90
3758;DHT22;1894;51.038;13.692;2023-02-24T01:20:05;8.70;99.90
3758;DHT22;1894;51.038;13.692;2023-02-24T01:22:48;8.50;99.90
3758;DHT22;1894;51.038;13.692;2023-02-24T01:25:16;8.60;99.90
3758;DHT22;1894;51.038;13.692;2023-02-24T01:27:46;8.50;99.90
3758;DHT22;1894;51.038;13.692;2023-02-24T01:30:13;8.60;99.90
3758;DHT22;1894;51.038;13.692;2023-02-24T01:32:44;8.50;99.90
3758;DHT22;1894;51.038;13.692;2023-02-24T01:35:13;8.50;99.90
3758;DHT22;1894;51.038;13.692;2023-02-24T01:37:40;8.40;99.90
3758;DHT22;1894;51.038;13.692;2023-02-24T01:40:11;8.20;99.90
3758;DHT22;1894;51.038;13.692;2023-02-24T01:42:44;8.30;99.90
3758;DHT22;1894;51.038;13.692;2023-02-24T01:45:17;8.10;99.90
3758;DHT22;1894;51.038;13.692;2023-02-24T01:47:47;8.20;99.90
3758;DHT22;1894;51.038;13.692;2023-02-24T01:50:17;8.30;99.90
3758;DHT22;1894;51.038;13.692;2023-02-24T01:52:49;8.30;99.90
3758;DHT22;1894;51.038;13.692;2023-02-24T01:58:01;8.20;99.90
3758;DHT22;1894;51.038;13.692;2023-02-24T02:00:31;8.20;99.90
3758;DHT22;1894;51.038;13.692;2023-02-24T02:03:24;8.10;99.90
3758;DHT22;1894;51.038;13.692;2023-02-24T02:06:04;8.10;99.90
3758;DHT22;1894;51.038;13.692;2023-02-24T02:08:37;8.10;99.90
3758;DHT22;1894;51.038;13.692;2023-02-24T02:11:12;8.10;99.90
3758;DHT22;1894;51.038;13.692;2023-02-24T02:13:47;8.10;99.90
3758;DHT22;1894;51.038;13.692;2023-02-24T02:16:40;8.00;99.90
3758;DHT22;1894;51.038;13.692;2023-02-24T02:25:24;8.20;99.90
3758;DHT22;1894;51.038;13.692;2023-02-24T02:33:40;8.10;99.90
3758;DHT22;1894;51.038;13.692;2023-02-24T02:36:30;8.20;99.90
3758;DHT22;1894;51.038;13.692;2023-02-24T02:39:12;8.30;99.90
3758;DHT22;1894;51.038;13.692;2023-02-24T02:41:53;8.30;99.90
3758;DHT22;1894;51.038;13.692;2023-02-24T02:44:39;8.20;99.90
3758;DHT22;1894;51.038;13.692;2023-02-24T02:48:05;8.00;99.90
3758;DHT22;1894;51.038;13.692;2023-02-24T02:50:44;7.90;99.90
3758;DHT22;1894;51.038;13.692;2023-02-24T02:53:30;8.00;99.90
3758;DHT22;1894;51.038;13.692;2023-02-24T02:59:02;7.90;99.90
3758;DHT22;1894;51.038;13.692;2023-02-24T03:01:35;8.00;99.90
3758;DHT22;1894;51.038;13.692;2023-02-24T03:04:06;8.10;99.90
3758;DHT22;1894;51.038;13.692;2023-02-24T03:06:47;8.00;99.90
3758;DHT22;1894;51.038;13.692;2023-02-24T03:09:33;8.00;99.90
3758;DHT22;1894;51.038;13.692;2023-02-24T03:12:15;7.90;99.90
3758;DHT22;1894;51.038;13.692;2023-02-24T03:14:51;8.00;99.90
3758;DHT22;1894;51.038;13.692;2023-02-24T03:17:36;7.90;99.90
3758;DHT22;1894;51.038;13.692;2023-02-24T03:23:08;8.00;99.90
3758;DHT22;1894;51.038;13.692;2023-02-24T03:29:29;7.80;99.90
3758;DHT22;1894;51.038;13.692;2023-02-24T03:34:57;7.60;99.90
3758;DHT22;1894;51.038;13.692;2023-02-24T03:37:38;7.60;99.90
3758;DHT22;1894;51.038;13.692;2023-02-24T03:40:09;7.50;99.90
3758;DHT22;1894;51.038;13.692;2023-02-24T03:42:45;7.30;99.90
3758;DHT22;1894;51.038;13.692;2023-02-24T03:45:14;7.30;99.90
3758;DHT22;1894;51.038;13.692;2023-02-24T03:47:43;7.30;99.90
3758;DHT22;1894;51.038;13.692;2023-02-24T03:50:19;7.20;99.90
3758;DHT22;1894;51.038;13.692;2023-02-24T04:04:04;7.20;99.90
3758;DHT22;1894;51.038;13.692;2023-02-24T04:12:17;7.00;99.90
3758;DHT22;1894;51.038;13.692;2023-02-24T04:15:40;6.90;99.90
3758;DHT22;1894;51.038;13.692;2023-02-24T04:18:05;6.90;99.90
3758;DHT22;1894;51.038;13.692;2023-02-24T04:20:54;6.80;99.90
3758;DHT22;1894;51.038;13.692;2023-02-24T04:23:37;6.80;99.90
3758;DHT22;1894;51.038;13.692;2023-02-24T04:26:10;6.80;99.90
3758;DHT22;1894;51.038;13.692;2023-02-24T04:28:40;6.80;99.90
3758;DHT22;1894;51.038;13.692;2023-02-24T04:31:11;6.80;99.90
3758;DHT22;1894;51.038;13.692;2023-02-24T04:33:45;6.70;99.90
3758;DHT22;1894;51.038;13.692;2023-02-24T04:36:20;6.80;99.90
3758;DHT22;1894;51.038;13.692;2023-02-24T04:38:48;6.90;99.90
3758;DHT22;1894;51.038;13.692;2023-02-24T04:41:16;6.80;99.90
3758;DHT22;1894;51.038;13.692;2023-02-24T04:43:50;6.80;99.90
3758;DHT22;1894;51.038;13.692;2023-02-24T04:46:18;6.70;99.90
3758;DHT22;1894;51.038;13.692;2023-02-24T04:48:46;6.80;99.90
3758;DHT22;1894;51.038;13.692;2023-02-24T04:51:13;6.90;99.90
3758;DHT22;1894;51.038;13.692;2023-02-24T04:53:40;6.90;99.90
3758;DHT22;1894;51.038;13.692;2023-02-24T04:56:07;6.90;99.90
3758;DHT22;1894;51.038;13.692;2023-02-24T04:58:37;7.10;99.90
3758;DHT22;1894;51.038;13.692;2023-02-24T05:01:09;7.00;99.90
3758;DHT22;1894;51.038;13.692;2023-02-24T05:03:37;7.00;99.90
3758;DHT22;1894;51.038;13.692;2023-02-24T05:06:14;7.10;99.90
3758;DHT22;1894;51.038;13.692;2023-02-24T05:08:42;7.00;99.90
3758;DHT22;1894;51.038;13.692;2023-02-24T05:11:14;7.00;99.90
3758;DHT22;1894;51.038;13.692;2023-02-24T05:13:42;7.00;99.90
3758;DHT22;1894;51.038;13.692;2023-02-24T05:16:15;7.00;99.90
3758;DHT22;1894;51.038;13.692;2023-02-24T05:18:43;7.10;99.90
3758;DHT22;1894;51.038;13.692;2023-02-24T05:21:13;7.10;99.90
3758;DHT22;1894;51.038;13.692;2023-02-24T05:24:00;7.10;99.90
3758;DHT22;1894;51.038;13.692;2023-02-24T05:26:35;7.00;99.90
3758;DHT22;1894;51.038;13.692;2023-02-24T05:29:04;6.90;99.90
3758;DHT22;1894;51.038;13.692;2023-02-24T05:31:32;6.80;99.90
3758;DHT22;1894;51.038;13.692;2023-02-24T05:34:03;6.90;99.90
3758;DHT22;1894;51.038;13.692;2023-02-24T05:36:35;6.80;99.90
3758;DHT22;1894;51.038;13.692;2023-02-24T05:39:06;6.80;99.90
3758;DHT22;1894;51.038;13.692;2023-02-24T05:41:39;6.60;99.90
3758;DHT22;1894;51.038;13.692;2023-02-24T05:44:11;6.60;99.90
3758;DHT22;1894;51.038;13.692;2023-02-24T05:46:43;6.50;99.90
3758;DHT22;1894;51.038;13.692;2023-02-24T05:49:17;6.50;99.90
3758;DHT22;1894;51.038;13.692;2023-02-24T05:51:58;6.50;99.90
3758;DHT22;1894;51.038;13.692;2023-02-24T05:54:34;6.40;99.90
3758;DHT22;1894;51.038;13.692;2023-02-24T05:57:05;6.30;99.90
3758;DHT22;1894;51.038;13.692;2023-02-24T05:59:35;6.00;99.90
3758;DHT22;1894;51.038;13.692;2023-02-24T06:02:05;6.00;99.90
3758;DHT22;1894;51.038;13.692;2023-02-24T06:04:36;5.90;99.90
3758;DHT22;1894;51.038;13.692;2023-02-24T06:09:50;6.00;99.90
3758;DHT22;1894;51.038;13.692;2023-02-24T06:12:25;6.00;99.90
3758;DHT22;1894;51.038;13.692;2023-02-24T06:15:00;6.00;99.90
3758;DHT22;1894;51.038;13.692;2023-02-24T06:17:33;6.00;99.90
3758;DHT22;1894;51.038;13.692;2023-02-24T06:20:00;5.90;99.90
3758;DHT22;1894;51.038;13.692;2023-02-24T06:22:27;5.80;99.90
3758;DHT22;1894;51.038;13.692;2023-02-24T06:24:55;5.70;99.90
3758;DHT22;1894;51.038;13.692;2023-02-24T06:27:22;5.70;99.90
3758;DHT22;1894;51.038;13.692;2023-02-24T06:29:52;5.60;99.90
3758;DHT22;1894;51.038;13.692;2023-02-24T06:32:24;5.50;99.90
3758;DHT22;1894;51.038;13.692;2023-02-24T06:34:52;5.50;99.90
3758;DHT22;1894;51.038;13.692;2023-02-24T06:37:20;5.50;99.90
3758;DHT22;1894;51.038;13.692;2023-02-24T06:39:49;5.50;99.90
3758;DHT22;1894;51.038;13.692;2023-02-24T06:42:16;5.40;99.90
3758;DHT22;1894;51.038;13.692;2023-02-24T06:44:43;5.30;99.90
3758;DHT22;1894;51.038;13.692;2023-02-24T06:47:12;5.30;99.90
3758;DHT22;1894;51.038;13.692;2023-02-24T06:49:40;5.30;99.90
3758;DHT22;1894;51.038;13.692;2023-02-24T06:52:10;5.30;99.90
3758;DHT22;1894;51.038;13.692;2023-02-24T06:54:46;5.30;99.90
3758;DHT22;1894;51.038;13.692;2023-02-24T06:57:15;5.40;99.90
3758;DHT22;1894;51.038;13.692;2023-02-24T06:59:43;5.30;99.90
3758;DHT22;1894;51.038;13.692;2023-02-24T07:02:11;5.30;99.90
3758;DHT22;1894;51.038;13.692;2023-02-24T07:04:39;5.30;99.90
3758;DHT22;1894;51.038;13.692;2023-02-24T07:07:13;5.30;99.90
3758;DHT22;1894;51.038;13.692;2023-02-24T07:09:40;5.40;99.90
3758;DHT22;1894;51.038;13.692;2023-02-24T07:12:09;5.40;99.90
3758;DHT22;1894;51.038;13.692;2023-02-24T07:14:38;5.50;99.90
3758;DHT22;1894;51.038;13.692;2023-02-24T07:17:06;5.30;99.90
3758;DHT22;1894;51.038;13.692;2023-02-24T07:19:34;5.20;99.90
3758;DHT22;1894;51.038;13.692;2023-02-24T07:22:01;5.20;99.90
3758;DHT22;1894;51.038;13.692;2023-02-24T07:24:32;5.00;99.90
3758;DHT22;1894;51.038;13.692;2023-02-24T07:29:35;4.90;99.90
3758;DHT22;1894;51.038;13.692;2023-02-24T07:32:06;5.10;99.90
3758;DHT22;1894;51.038;13.692;2023-02-24T07:34:35;5.20;99.90
3758;DHT22;1894;51.038;13.692;2023-02-24T07:37:07;5.30;99.90
3758;DHT22;1894;51.038;13.692;2023-02-24T07:39:38;5.30;99.90
3758;DHT22;1894;51.038;13.692;2023-02-24T07:42:07;5.20;99.90
3758;DHT22;1894;51.038;13.692;2023-02-24T07:44:43;5.10;99.90
3758;DHT22;1894;51.038;13.692;2023-02-24T07:47:12;5.20;99.90
3758;DHT22;1894;51.038;13.692;2023-02-24T07:49:41;5.20;99.90
3758;DHT22;1894;51.038;13.692;2023-02-24T07:52:09;5.10;99.90
3758;DHT22;1894;51.038;13.692;2023-02-24T07:54:37;4.80;99.90
3758;DHT22;1894;51.038;13.692;2023-02-24T07:57:05;4.60;99.90
3758;DHT22;1894;51.038;13.692;2023-02-24T07:59:39;4.70;99.90
3758;DHT22;1894;51.038;13.692;2023-02-24T08:02:11;4.40;99.90
3758;DHT22;1894;51.038;13.692;2023-02-24T08:04:39;4.60;99.90
3758;DHT22;1894;51.038;13.692;2023-02-24T08:07:10;4.70;99.90
3758;DHT22;1894;51.038;13.692;2023-02-24T08:09:40;4.80;99.90
3758;DHT22;1894;51.038;13.692;2023-02-24T08:12:19;4.70;99.90
3758;DHT22;1894;51.038;13.692;2023-02-24T08:14:50;4.80;99.90
3758;DHT22;1894;51.038;13.692;2023-02-24T08:17:24;4.70;99.90
3758;DHT22;1894;51.038;13.692;2023-02-24T08:19:54;4.90;99.90
3758;DHT22;1894;51.038;13.692;2023-02-24T08:22:49;5.00;99.90
3758;DHT22;1894;51.038;13.692;2023-02-24T08:25:25;5.10;99.90
3758;DHT22;1894;51.038;13.692;2023-02-24T08:28:05;5.10;99.90
3758;DHT22;1894;51.038;13.692;2023-02-24T08:30:41;5.00;99.90
3758;DHT22;1894;51.038;13.692;2023-02-24T08:33:18;4.90;99.90
3758;DHT22;1894;51.038;13.692;2023-02-24T08:35:54;5.00;99.90
3758;DHT22;1894;51.038;13.692;2023-02-24T08:38:32;4.90;99.90
3758;DHT22;1894;51.038;13.692;2023-02-24T08:41:16;5.30;99.90
3758;DHT22;1894;51.038;13.692;2023-02-24T08:43:52;5.50;99.90
3758;DHT22;1894;51.038;13.692;2023-02-24T08:46:22;5.50;99.90
3758;DHT22;1894;51.038;13.692;2023-02-24T08:48:59;5.50;99.90
3758;DHT22;1894;51.038;13.692;2023-02-24T08:51:33;5.40;99.90
3758;DHT22;1894;51.038;13.692;2023-02-24T08:54:06;5.20;99.90
3758;DHT22;1894;51.038;13.692;2023-02-24T08:56:37;5.20;99.90
3758;DHT22;1894;51.038;13.692;2023-02-24T08:59:12;5.30;99.90
3758;DHT22;1894;51.038;13.692;2023-02-24T09:02:00;5.30;99.90
3758;DHT22;1894;51.038;13.692;2023-02-24T09:05:06;5.40;99.90
3758;DHT22;1894;51.038;13.692;2023-02-24T09:07:41;5.40;99.90
3758;DHT22;1894;51.038;13.692;2023-02-24T09:10:19;5.40;99.90
3758;DHT22;1894;51.038;13.692;2023-02-24T09:12:46;5.80;99.90
3758;DHT22;1894;51.038;13.692;2023-02-24T09:15:15;5.90;99.90
3758;DHT22;1894;51.038;13.692;2023-02-24T09:17:44;5.80;99.90
3758;DHT22;1894;51.038;13.692;2023-02-24T09:20:14;5.80;99.90
3758;DHT22;1894;51.038;13.692;2023-02-24T09:23:02;5.60;99.90
3758;DHT22;1894;51.038;13.692;2023-02-24T09:25:31;5.60;99.90
3758;DHT22;1894;51.038;13.692;2023-02-24T09:28:20;5.20;99.90
3758;DHT22;1894;51.038;13.692;2023-02-24T09:30:53;5.00;99.90
3758;DHT22;1894;51.038;13.692;2023-02-24T09:33:30;5.10;99.90
3758;DHT22;1894;51.038;13.692;2023-02-24T09:36:13;5.20;99.90
3758;DHT22;1894;51.038;13.692;2023-02-24T09:38:56;4.90;99.90
3758;DHT22;1894;51.038;13.692;2023-02-24T09:41:40;5.10;99.90
3758;DHT22;1894;51.038;13.692;2023-02-24T09:44:42;5.40;99.90
3758;DHT22;1894;51.038;13.692;2023-02-24T09:50:12;5.60;99.90
3758;DHT22;1894;51.038;13.692;2023-02-24T09:53:31;6.00;99.90
3758;DHT22;1894;51.038;13.692;2023-02-24T09:56:31;6.50;99.90
3758;DHT22;1894;51.038;13.692;2023-02-24T09:59:31;7.00;99.90
3758;DHT22;1894;51.038;13.692;2023-02-24T10:07:41;7.60;99.90
3758;DHT22;1894;51.038;13.692;2023-02-24T10:10:13;7.10;99.90
3758;DHT22;1894;51.038;13.692;2023-02-24T10:13:15;6.50;99.90
3758;DHT22;1894;51.038;13.692;2023-02-24T10:15:58;6.40;99.90
3758;DHT22;1894;51.038;13.692;2023-02-24T10:18:46;7.10;99.90
3758;DHT22;1894;51.038;13.692;2023-02-24T10:21:37;7.70;99.90
3758;DHT22;1894;51.038;13.692;2023-02-24T10:24:45;7.50;99.90
3758;DHT22;1894;51.038;13.692;2023-02-24T10:27:27;7.80;99.90
3758;DHT22;1894;51.038;13.692;2023-02-24T10:30:15;8.10;99.90
3758;DHT22;1894;51.038;13.692;2023-02-24T10:33:27;8.50;99.90
3758;DHT22;1894;51.038;13.692;2023-02-24T10:36:17;7.60;99.90
3758;DHT22;1894;51.038;13.692;2023-02-24T10:38:45;8.10;99.90
3758;DHT22;1894;51.038;13.692;2023-02-24T10:41:13;8.90;99.90
3758;DHT22;1894;51.038;13.692;2023-02-24T10:43:52;9.00;99.90
3758;DHT22;1894;51.038;13.692;2023-02-24T10:49:09;9.00;99.90
3758;DHT22;1894;51.038;13.692;2023-02-24T10:51:47;8.90;99.90
3758;DHT22;1894;51.038;13.692;2023-02-24T10:54:27;8.50;99.90
3758;DHT22;1894;51.038;13.692;2023-02-24T10:57:12;8.50;99.90
3758;DHT22;1894;51.038;13.692;2023-02-24T11:00:16;8.20;99.90
3758;DHT22;1894;51.038;13.692;2023-02-24T11:02:57;8.50;99.90
3758;DHT22;1894;51.038;13.692;2023-02-24T11:05:44;8.50;99.90
3758;DHT22;1894;51.038;13.692;2023-02-24T11:08:32;8.10;99.90
3758;DHT22;1894;51.038;13.692;2023-02-24T11:11:21;7.90;99.90
3758;DHT22;1894;51.038;13.692;2023-02-24T11:13:58;7.70;99.90
3758;DHT22;1894;51.038;13.692;2023-02-24T11:16:53;8.00;99.90
3758;DHT22;1894;51.038;13.692;2023-02-24T11:19:58;8.20;99.90
3758;DHT22;1894;51.038;13.692;2023-02-24T11:22:32;8.70;99.90
3758;DHT22;1894;51.038;13.692;2023-02-24T11:25:13;8.50;99.90
3758;DHT22;1894;51.038;13.692;2023-02-24T11:27:45;8.40;99.90
3758;DHT22;1894;51.038;13.692;2023-02-24T11:30:44;8.80;99.90
3758;DHT22;1894;51.038;13.692;2023-02-24T11:33:26;9.20;99.90
3758;DHT22;1894;51.038;13.692;2023-02-24T11:36:54;9.80;99.90
3758;DHT22;1894;51.038;13.692;2023-02-24T11:42:24;8.60;99.90
3758;DHT22;1894;51.038;13.692;2023-02-24T11:45:04;8.40;99.90
3758;DHT22;1894;51.038;13.692;2023-02-24T11:47:48;8.80;99.90
3758;DHT22;1894;51.038;13.692;2023-02-24T11:50:29;9.10;99.90
3758;DHT22;1894;51.038;13.692;2023-02-24T11:55:59;9.60;99.90
3758;DHT22;1894;51.038;13.692;2023-02-24T11:59:05;9.70;99.90
3758;DHT22;1894;51.038;13.692;2023-02-24T12:01:51;9.20;99.90
3758;DHT22;1894;51.038;13.692;2023-02-24T12:04:31;9.10;99.90
3758;DHT22;1894;51.038;13.692;2023-02-24T12:12:44;9.00;99.90
3758;DHT22;1894;51.038;13.692;2023-02-24T12:15:29;8.80;99.90
3758;DHT22;1894;51.038;13.692;2023-02-24T12:18:12;8.80;99.90
3758;DHT22;1894;51.038;13.692;2023-02-24T12:20:42;8.50;99.90
3758;DHT22;1894;51.038;13.692;2023-02-24T12:23:18;8.60;99.90
3758;DHT22;1894;51.038;13.692;2023-02-24T12:26:25;8.50;99.90
3758;DHT22;1894;51.038;13.692;2023-02-24T12:38:54;8.00;99.90
3758;DHT22;1894;51.038;13.692;2023-02-24T12:50:51;7.80;99.90
3758;DHT22;1894;51.038;13.692;2023-02-24T12:56:14;7.90;99.90
3758;DHT22;1894;51.038;13.692;2023-02-24T12:58:50;7.80;99.90
3758;DHT22;1894;51.038;13.692;2023-02-24T13:12:36;7.60;99.90
3758;DHT22;1894;51.038;13.692;2023-02-24T13:15:23;7.60;99.90
3758;DHT22;1894;51.038;13.692;2023-02-24T13:17:53;7.70;99.90
3758;DHT22;1894;51.038;13.692;2023-02-24T13:23:01;7.70;99.90
3758;DHT22;1894;51.038;13.692;2023-02-24T13:25:35;8.00;99.90
3758;DHT22;1894;51.038;13.692;2023-02-24T13:28:20;8.00;99.90
3758;DHT22;1894;51.038;13.692;2023-02-24T13:31:05;8.00;99.90
3758;DHT22;1894;51.038;13.692;2023-02-24T13:33:38;8.20;99.90
3758;DHT22;1894;51.038;13.692;2023-02-24T13:36:19;8.10;99.90
3758;DHT22;1894;51.038;13.692;2023-02-24T13:39:04;8.30;99.90
3758;DHT22;1894;51.038;13.692;2023-02-24T13:44:21;8.40;99.90
3758;DHT22;1894;51.038;13.692;2023-02-24T13:50:21;7.90;99.90
3758;DHT22;1894;51.038;13.692;2023-02-24T13:53:21;8.00;99.90
3758;DHT22;1894;51.038;13.692;2023-02-24T14:02:21;8.00;99.90
3758;DHT22;1894;51.038;13.692;2023-02-24T14:04:55;7.90;99.90
3758;DHT22;1894;51.038;13.692;2023-02-24T14:07:31;8.10;99.90
3758;DHT22;1894;51.038;13.692;2023-02-24T14:10:04;8.30;99.90
3758;DHT22;1894;51.038;13.692;2023-02-24T14:12:41;8.20;99.90
3758;DHT22;1894;51.038;13.692;2023-02-24T14:15:17;7.70;99.90
3758;DHT22;1894;51.038;13.692;2023-02-24T14:17:58;7.60;99.90
3758;DHT22;1894;51.038;13.692;2023-02-24T14:20:34;7.60;99.90
3758;DHT22;1894;51.038;13.692;2023-02-24T14:23:21;7.50;99.90
3758;DHT22;1894;51.038;13.692;2023-02-24T14:28:35;7.70;99.90
3758;DHT22;1894;51.038;13.692;2023-02-24T14:33:39;7.50;99.90
3758;DHT22;1894;51.038;13.692;2023-02-24T14:36:17;7.50;99.90
3758;DHT22;1894;51.038;13.692;2023-02-24T14:41:43;7.70;99.90
3758;DHT22;1894;51.038;13.692;2023-02-24T14:44:26;7.80;99.90
3758;DHT22;1894;51.038;13.692;2023-02-24T14:47:00;7.60;99.90
3758;DHT22;1894;51.038;13.692;2023-02-24T14:49:31;7.50;99.90
3758;DHT22;1894;51.038;13.692;2023-02-24T14:52:07;7.50;99.90
3758;DHT22;1894;51.038;13.692;2023-02-24T14:55:10;7.50;99.90
3758;DHT22;1894;51.038;13.692;2023-02-24T14:57:46;7.60;99.90
3758;DHT22;1894;51.038;13.692;2023-02-24T15:00:20;7.70;99.90
3758;DHT22;1894;51.038;13.692;2023-02-24T15:03:17;7.50;99.90
3758;DHT22;1894;51.038;13.692;2023-02-24T15:05:47;7.50;99.90
3758;DHT22;1894;51.038;13.692;2023-02-24T15:08:45;7.60;99.90
3758;DHT22;1894;51.038;13.692;2023-02-24T15:16:27;7.70;99.90
3758;DHT22;1894;51.038;13.692;2023-02-24T15:18:58;7.80;99.90
3758;DHT22;1894;51.038;13.692;2023-02-24T15:21:32;7.60;99.90
3758;DHT22;1894;51.038;13.692;2023-02-24T15:24:24;7.70;99.90
3758;DHT22;1894;51.038;13.692;2023-02-24T15:27:02;7.70;99.90
3758;DHT22;1894;51.038;13.692;2023-02-24T15:29:57;7.80;99.90
3758;DHT22;1894;51.038;13.692;2023-02-24T15:32:31;7.70;99.90
3758;DHT22;1894;51.038;13.692;2023-02-24T15:34:59;7.60;99.90
3758;DHT22;1894;51.038;13.692;2023-02-24T15:37:37;7.60;99.90
3758;DHT22;1894;51.038;13.692;2023-02-24T15:40:19;7.40;99.90
3758;DHT22;1894;51.038;13.692;2023-02-24T15:43:16;7.20;99.90
3758;DHT22;1894;51.038;13.692;2023-02-24T15:45:57;7.30;99.90
3758;DHT22;1894;51.038;13.692;2023-02-24T15:48:25;7.30;99.90
3758;DHT22;1894;51.038;13.692;2023-02-24T15:51:02;7.30;99.90
3758;DHT22;1894;51.038;13.692;2023-02-24T15:53:30;7.30;99.90
3758;DHT22;1894;51.038;13.692;2023-02-24T15:55:58;7.20;99.90
3758;DHT22;1894;51.038;13.692;2023-02-24T15:58:25;7.20;99.90
3758;DHT22;1894;51.038;13.692;2023-02-24T16:00:52;7.20;99.90
3758;DHT22;1894;51.038;13.692;2023-02-24T16:03:20;7.20;99.90
3758;DHT22;1894;51.038;13.692;2023-02-24T16:05:47;6.80;99.90
3758;DHT22;1894;51.038;13.692;2023-02-24T16:08:18;6.50;99.90
3758;DHT22;1894;51.038;13.692;2023-02-24T16:10:45;6.20;99.90
3758;DHT22;1894;51.038;13.692;2023-02-24T16:13:19;6.20;99.90
3758;DHT22;1894;51.038;13.692;2023-02-24T16:15:48;6.00;99.90
3758;DHT22;1894;51.038;13.692;2023-02-24T16:18:19;5.90;99.90
3758;DHT22;1894;51.038;13.692;2023-02-24T16:20:49;5.90;99.90
3758;DHT22;1894;51.038;13.692;2023-02-24T16:23:24;5.70;99.90
3758;DHT22;1894;51.038;13.692;2023-02-24T16:25:57;5.90;99.90
3758;DHT22;1894;51.038;13.692;2023-02-24T16:28:25;6.00;99.90
3758;DHT22;1894;51.038;13.692;2023-02-24T16:30:54;5.90;99.90
3758;DHT22;1894;51.038;13.692;2023-02-24T16:33:21;5.90;99.90
3758;DHT22;1894;51.038;13.692;2023-02-24T16:35:52;5.80;99.90
3758;DHT22;1894;51.038;13.692;2023-02-24T16:38:21;5.80;99.90
3758;DHT22;1894;51.038;13.692;2023-02-24T16:40:53;5.70;99.90
3758;DHT22;1894;51.038;13.692;2023-02-24T16:43:20;5.70;99.90
3758;DHT22;1894;51.038;13.692;2023-02-24T16:45:47;5.70;99.90
3758;DHT22;1894;51.038;13.692;2023-02-24T16:48:24;5.40;99.90
3758;DHT22;1894;51.038;13.692;2023-02-24T16:50:52;5.40;99.90
3758;DHT22;1894;51.038;13.692;2023-02-24T16:53:22;5.30;99.90
3758;DHT22;1894;51.038;13.692;2023-02-24T16:55:50;5.20;99.90
3758;DHT22;1894;51.038;13.692;2023-02-24T16:58:18;5.30;99.90
3758;DHT22;1894;51.038;13.692;2023-02-24T17:00:47;5.40;99.90
3758;DHT22;1894;51.038;13.692;2023-02-24T17:03:21;5.30;99.90
3758;DHT22;1894;51.038;13.692;2023-02-24T17:05:51;5.40;99.90
3758;DHT22;1894;51.038;13.692;2023-02-24T17:08:19;5.30;99.90
3758;DHT22;1894;51.038;13.692;2023-02-24T17:10:47;5.20;99.90
3758;DHT22;1894;51.038;13.692;2023-02-24T17:13:17;5.10;99.90
3758;DHT22;1894;51.038;13.692;2023-02-24T17:15:46;5.00;99.90
3758;DHT22;1894;51.038;13.692;2023-02-24T17:18:24;5.00;99.90
3758;DHT22;1894;51.038;13.692;2023-02-24T17:20:52;5.20;99.90
3758;DHT22;1894;51.038;13.692;2023-02-24T17:23:20;5.20;99.90
3758;DHT22;1894;51.038;13.692;2023-02-24T17:25:52;5.10;99.90
3758;DHT22;1894;51.038;13.692;2023-02-24T17:28:20;5.00;99.90
3758;DHT22;1894;51.038;13.692;2023-02-24T17:30:48;5.10;99.90
3758;DHT22;1894;51.038;13.692;2023-02-24T17:33:15;5.10;99.90
3758;DHT22;1894;51.038;13.692;2023-02-24T17:35:43;5.00;99.90
3758;DHT22;1894;51.038;13.692;2023-02-24T17:38:15;5.00;99.90
3758;DHT22;1894;51.038;13.692;2023-02-24T17:40:44;5.00;99.90
3758;DHT22;1894;51.038;13.692;2023-02-24T17:43:12;5.00;99.90
3758;DHT22;1894;51.038;13.692;2023-02-24T17:45:40;4.80;99.90
3758;DHT22;1894;51.038;13.692;2023-02-24T17:48:12;4.80;99.90
3758;DHT22;1894;51.038;13.692;2023-02-24T17:50:44;4.80;99.90
3758;DHT22;1894;51.038;13.692;2023-02-24T17:53:13;4.90;99.90
3758;DHT22;1894;51.038;13.692;2023-02-24T17:55:41;4.80;99.90
3758;DHT22;1894;51.038;13.692;2023-02-24T17:58:27;4.70;99.90
3758;DHT22;1894;51.038;13.692;2023-02-24T18:00:54;4.60;99.90
3758;DHT22;1894;51.038;13.692;2023-02-24T18:03:22;4.50;99.90
3758;DHT22;1894;51.038;13.692;2023-02-24T18:06:01;4.50;99.90
3758;DHT22;1894;51.038;13.692;2023-02-24T18:08:31;4.60;99.90
3758;DHT22;1894;51.038;13.692;2023-02-24T18:11:00;4.50;99.90
3758;DHT22;1894;51.038;13.692;2023-02-24T18:13:28;4.50;99.90
3758;DHT22;1894;51.038;13.692;2023-02-24T18:15:57;4.50;99.90
3758;DHT22;1894;51.038;13.692;2023-02-24T18:18:25;4.40;99.90
3758;DHT22;1894;51.038;13.692;2023-02-24T18:20:53;4.40;99.90
3758;DHT22;1894;51.038;13.692;2023-02-24T18:23:27;4.40;99.90
3758;DHT22;1894;51.038;13.692;2023-02-24T18:25:55;4.30;99.90
3758;DHT22;1894;51.038;13.692;2023-02-24T18:28:22;4.30;99.90
3758;DHT22;1894;51.038;13.692;2023-02-24T18:30:50;4.30;99.90
3758;DHT22;1894;51.038;13.692;2023-02-24T18:33:17;4.40;99.90
3758;DHT22;1894;51.038;13.692;2023-02-24T18:35:44;4.30;99.90
3758;DHT22;1894;51.038;13.692;2023-02-24T18:38:11;4.30;99.90
3758;DHT22;1894;51.038;13.692;2023-02-24T18:40:39;4.30;99.90
3758;DHT22;1894;51.038;13.692;2023-02-24T18:43:06;4.20;99.90
3758;DHT22;1894;51.038;13.692;2023-02-24T18:45:33;4.20;99.90
3758;DHT22;1894;51.038;13.692;2023-02-24T18:48:00;4.10;99.90
3758;DHT22;1894;51.038;13.692;2023-02-24T18:50:33;4.00;99.90
3758;DHT22;1894;51.038;13.692;2023-02-24T18:53:01;4.00;99.90
3758;DHT22;1894;51.038;13.692;2023-02-24T18:55:28;4.00;99.90
3758;DHT22;1894;51.038;13.692;2023-02-24T18:57:55;4.00;99.90
3758;DHT22;1894;51.038;13.692;2023-02-24T19:00:22;3.90;99.90
3758;DHT22;1894;51.038;13.692;2023-02-24T19:02:50;3.90;99.90
3758;DHT22;1894;51.038;13.692;2023-02-24T19:05:17;3.80;99.90